createdAt,value
2022-10-04T00:02:05.827Z,97405.38
2022-10-04T00:04:46.092Z,97407.94
2022-10-04T00:07:14.052Z,97398.13
2022-10-04T00:09:49.455Z,97404.13
2022-10-04T00:12:36.540Z,97402.91
2022-10-04T00:15:19.546Z,97387.03
2022-10-04T00:18:03.226Z,97390.44
2022-10-04T00:20:49.593Z,97393.09
2022-10-04T00:23:26.808Z,97388.53
2022-10-04T00:26:00.385Z,97387.84
2022-10-04T00:28:42.625Z,97399.97
2022-10-04T00:31:10.762Z,97390.25
2022-10-04T00:33:41.308Z,97391.91
2022-10-04T00:36:24.649Z,97386.97
2022-10-04T00:39:10.895Z,97389.25
2022-10-04T00:42:18.667Z,97388.28
2022-10-04T00:44:59.050Z,97391.72
2022-10-04T00:47:45.485Z,97392.25
2022-10-04T00:50:26.485Z,97394.22
2022-10-04T00:52:58.820Z,97388.16
2022-10-04T00:55:38.040Z,97389.84
2022-10-04T00:58:22.722Z,97394.69
2022-10-04T01:00:53.402Z,97393.78
2022-10-04T01:03:40.325Z,97386.03
2022-10-04T01:06:12.252Z,97387.97
2022-10-04T01:08:52.629Z,97400.16
2022-10-04T01:11:48.375Z,97396.16
2022-10-04T01:14:27.288Z,97394.22
2022-10-04T01:16:58.233Z,97405.03
2022-10-04T01:19:26.183Z,97398.75
2022-10-04T01:22:09.338Z,97398.91
2022-10-04T01:24:46.300Z,97399.03
2022-10-04T01:27:34.091Z,97410.19
2022-10-04T01:30:06.335Z,97407.41
2022-10-04T01:32:38.031Z,97405.47
2022-10-04T01:35:10.327Z,97409.84
2022-10-04T01:37:41.418Z,97412.53
2022-10-04T01:40:12.866Z,97408.41
2022-10-04T01:42:50.591Z,97405.09
2022-10-04T01:45:23.278Z,97415.34
2022-10-04T01:47:59.379Z,97417.81
2022-10-04T01:50:41.208Z,97414.81
2022-10-04T01:53:15.301Z,97422.97
2022-10-04T01:55:44.588Z,97421.78
2022-10-04T01:58:20.451Z,97421.94
2022-10-04T02:00:59.311Z,97426.63
2022-10-04T02:03:39.838Z,97427.97
2022-10-04T02:06:11.186Z,97428.75
2022-10-04T02:08:48.108Z,97439.84
2022-10-04T02:11:20.037Z,97437.44
2022-10-04T02:13:54.078Z,97438.63
2022-10-04T02:16:22.599Z,97442.47
2022-10-04T02:18:52.615Z,97436.69
2022-10-04T02:21:21.360Z,97429.91
2022-10-04T02:23:50.126Z,97438.44
2022-10-04T02:26:18.359Z,97440.94
2022-10-04T02:28:46.405Z,97435.41
2022-10-04T02:31:14.651Z,97447.28
2022-10-04T02:33:44.889Z,97440.38
2022-10-04T02:36:13.881Z,97440.34
2022-10-04T02:39:16.053Z,97443.59
2022-10-04T02:41:58.296Z,97441.34
2022-10-04T02:44:37.426Z,97443.03
2022-10-04T02:47:16.051Z,97440.66
2022-10-04T02:49:53.837Z,97438.88
2022-10-04T02:52:56.936Z,97441.28
2022-10-04T02:55:28.233Z,97448.63
2022-10-04T02:58:00.616Z,97445.50
2022-10-04T03:00:31.410Z,97454.06
2022-10-04T03:03:31.136Z,97449.09
2022-10-04T03:06:16.785Z,97457.31
2022-10-04T03:08:44.768Z,97444.81
2022-10-04T03:11:17.230Z,97457.09
2022-10-04T03:13:49.717Z,97455.47
2022-10-04T03:16:21.683Z,97460.13
2022-10-04T03:18:51.342Z,97470.09
2022-10-04T03:21:26.245Z,97472.44
2022-10-04T03:23:55.521Z,97468.13
2022-10-04T03:26:43.846Z,97474.47
2022-10-04T03:29:14.471Z,97478.59
2022-10-04T03:31:47.754Z,97473.38
2022-10-04T03:34:32.966Z,97482.84
2022-10-04T03:37:02.221Z,97484.53
2022-10-04T03:39:34.379Z,97481.00
2022-10-04T03:42:23.501Z,97485.06
2022-10-04T03:45:05.337Z,97479.13
2022-10-04T03:47:36.869Z,97475.19
2022-10-04T03:50:30.987Z,97481.28
2022-10-04T03:53:02.747Z,97483.31
2022-10-04T03:55:37.238Z,97490.81
2022-10-04T03:58:06.328Z,97488.28
2022-10-04T04:00:43.851Z,97485.72
2022-10-04T04:03:19.104Z,97490.53
2022-10-04T04:05:55.204Z,97489.59
2022-10-04T04:08:38.802Z,97495.34
2022-10-04T04:11:08.415Z,97485.38
2022-10-04T04:13:53.460Z,97495.91
2022-10-04T04:16:23.520Z,97500.16
2022-10-04T04:18:55.885Z,97502.88
2022-10-04T04:21:26.352Z,97501.47
2022-10-04T04:24:02.001Z,97506.56
2022-10-04T04:27:00.240Z,97506.22
2022-10-04T04:29:37.188Z,97508.00
2022-10-04T04:32:33.537Z,97510.06
2022-10-04T04:35:02.674Z,97505.28
2022-10-04T04:37:33.274Z,97517.44
2022-10-04T04:40:19.420Z,97512.06
2022-10-04T04:42:49.303Z,97516.47
2022-10-04T04:45:21.485Z,97515.59
2022-10-04T04:47:55.860Z,97526.81
2022-10-04T04:50:35.164Z,97511.56
2022-10-04T04:53:24.234Z,97520.38
2022-10-04T04:56:04.915Z,97524.34
2022-10-04T04:58:37.356Z,97526.69
2022-10-04T05:01:30.565Z,97521.06
2022-10-04T05:04:05.709Z,97518.03
2022-10-04T05:06:35.921Z,97521.94
2022-10-04T05:09:05.618Z,97524.63
2022-10-04T05:11:39.662Z,97521.97
2022-10-04T05:14:11.687Z,97522.38
2022-10-04T05:16:42.351Z,97523.63
2022-10-04T05:19:14.732Z,97520.00
2022-10-04T05:21:46.917Z,97521.16
2022-10-04T05:24:23.710Z,97518.03
2022-10-04T05:26:58.524Z,97519.47
2022-10-04T05:29:30.580Z,97525.94
2022-10-04T05:32:06.460Z,97531.66
2022-10-04T05:34:41.145Z,97530.22
2022-10-04T05:37:30.825Z,97533.63
2022-10-04T05:40:07.503Z,97532.22
2022-10-04T05:42:42.832Z,97534.56
2022-10-04T05:45:20.219Z,97540.63
2022-10-04T05:47:51.887Z,97539.06
2022-10-04T05:50:39.387Z,97542.06
2022-10-04T05:53:30.777Z,97543.91
2022-10-04T05:56:32.097Z,97545.56
2022-10-04T05:59:24.140Z,97553.28
2022-10-04T06:02:04.562Z,97549.81
2022-10-04T06:04:54.166Z,97556.44
2022-10-04T06:07:35.448Z,97555.84
2022-10-04T06:10:27.455Z,97561.38
2022-10-04T06:13:08.493Z,97560.66
2022-10-04T06:15:54.476Z,97567.91
2022-10-04T06:18:44.989Z,97554.88
2022-10-04T06:21:51.246Z,97562.41
2022-10-04T06:24:26.921Z,97560.06
2022-10-04T06:27:19.339Z,97557.66
2022-10-04T06:30:08.625Z,97557.13
2022-10-04T06:33:21.475Z,97547.91
2022-10-04T06:36:25.141Z,97562.69
2022-10-04T06:38:53.130Z,97565.44
2022-10-04T06:41:36.157Z,97565.41
2022-10-04T06:44:51.308Z,97568.84
2022-10-04T06:47:27.017Z,97572.69
2022-10-04T06:50:00.548Z,97563.47
2022-10-04T06:53:13.015Z,97567.66
2022-10-04T06:55:56.202Z,97572.72
2022-10-04T06:58:52.164Z,97565.44
2022-10-04T07:01:39.129Z,97564.75
2022-10-04T07:05:06.540Z,97571.63
2022-10-04T07:07:41.438Z,97562.03
2022-10-04T07:10:46.170Z,97563.19
2022-10-04T07:13:29.025Z,97569.31
2022-10-04T07:16:07.747Z,97566.19
2022-10-04T07:18:55.551Z,97564.69
2022-10-04T07:21:25.814Z,97565.09
2022-10-04T07:23:59.787Z,97560.88
2022-10-04T07:26:45.553Z,97556.66
2022-10-04T07:29:23.660Z,97563.25
2022-10-04T07:32:07.350Z,97563.63
2022-10-04T07:35:03.988Z,97568.97
2022-10-04T07:37:37.486Z,97573.94
2022-10-04T07:40:09.636Z,97574.31
2022-10-04T07:42:52.628Z,97580.47
2022-10-04T07:45:40.601Z,97585.06
2022-10-04T07:48:22.653Z,97581.25
2022-10-04T07:51:45.950Z,97584.66
2022-10-04T07:54:24.592Z,97580.06
2022-10-04T07:57:05.024Z,97586.94
2022-10-04T07:59:58.802Z,97597.63
2022-10-04T08:02:33.376Z,97596.06
2022-10-04T08:05:10.450Z,97601.09
2022-10-04T08:07:51.037Z,97605.31
2022-10-04T08:10:26.837Z,97600.63
2022-10-04T08:13:34.532Z,97604.88
2022-10-04T08:16:33.546Z,97602.91
2022-10-04T08:19:16.559Z,97600.63
2022-10-04T08:21:56.324Z,97601.03
2022-10-04T08:24:52.695Z,97600.69
2022-10-04T08:27:39.359Z,97601.88
2022-10-04T08:30:17.305Z,97600.34
2022-10-04T08:33:23.292Z,97596.91
2022-10-04T08:36:07.094Z,97597.19
2022-10-04T08:39:05.383Z,97590.69
2022-10-04T08:41:54.264Z,97588.31
2022-10-04T08:44:49.484Z,97589.13
2022-10-04T08:47:54.391Z,97591.75
2022-10-04T08:50:50.329Z,97578.47
2022-10-04T08:53:36.644Z,97591.84
2022-10-04T08:56:18.027Z,97589.91
2022-10-04T08:58:53.857Z,97589.03
2022-10-04T09:01:46.588Z,97597.78
2022-10-04T09:04:14.587Z,97594.06
2022-10-04T09:06:54.705Z,97588.38
2022-10-04T09:13:14.341Z,97595.75
2022-10-04T09:16:17.119Z,97599.19
2022-10-04T09:18:56.928Z,97598.88
2022-10-04T09:21:44.405Z,97593.22
2022-10-04T09:24:30.145Z,97594.31
2022-10-04T09:27:06.712Z,97590.94
2022-10-04T09:29:49.612Z,97601.63
2022-10-04T09:32:28.066Z,97590.59
2022-10-04T09:35:11.425Z,97594.47
2022-10-04T09:37:45.271Z,97604.81
2022-10-04T09:40:34.929Z,97607.94
2022-10-04T09:43:08.574Z,97608.75
2022-10-04T09:46:01.296Z,97606.09
2022-10-04T09:49:05.568Z,97618.66
2022-10-04T09:51:51.672Z,97611.34
2022-10-04T09:54:28.584Z,97614.78
2022-10-04T09:57:07.307Z,97610.22
2022-10-04T09:59:38.353Z,97612.81
2022-10-04T10:02:39.697Z,97618.53
2022-10-04T10:05:16.276Z,97611.56
2022-10-04T10:07:50.235Z,97614.94
2022-10-04T10:10:20.699Z,97617.16
2022-10-04T10:13:04.020Z,97609.44
2022-10-04T10:15:34.792Z,97612.44
2022-10-04T10:18:11.603Z,97612.09
2022-10-04T10:20:50.657Z,97609.88
2022-10-04T10:23:21.662Z,97615.56
2022-10-04T10:26:07.968Z,97610.53
2022-10-04T10:28:48.181Z,97613.22
2022-10-04T10:31:28.687Z,97605.16
2022-10-04T10:34:26.663Z,97620.69
2022-10-04T10:37:21.878Z,97624.09
2022-10-04T10:39:58.480Z,97623.75
2022-10-04T10:42:53.521Z,97631.75
2022-10-04T10:45:21.485Z,97624.56
2022-10-04T10:48:00.926Z,97625.25
2022-10-04T10:51:02.772Z,97626.44
2022-10-04T10:53:51.933Z,97625.97
2022-10-04T10:56:26.701Z,97623.66
2022-10-04T10:59:21.580Z,97626.81
2022-10-04T11:02:42.530Z,97627.31
2022-10-04T11:05:45.349Z,97624.66
2022-10-04T11:08:37.300Z,97622.00
2022-10-04T11:11:34.864Z,97613.94
2022-10-04T11:14:20.496Z,97620.44
2022-10-04T11:17:20.088Z,97626.44
2022-10-04T11:20:06.420Z,97616.09
2022-10-04T11:23:15.409Z,97623.50
2022-10-04T11:26:01.755Z,97621.88
2022-10-04T11:28:54.572Z,97616.84
2022-10-04T11:31:58.805Z,97621.81
2022-10-04T11:35:12.153Z,97633.22
2022-10-04T11:37:58.311Z,97623.13
2022-10-04T11:40:47.446Z,97620.50
2022-10-04T11:43:42.529Z,97625.50
2022-10-04T11:46:11.173Z,97623.69
2022-10-04T11:48:54.151Z,97623.13
2022-10-04T11:51:40.317Z,97628.13
2022-10-04T11:54:57.107Z,97637.31
2022-10-04T11:57:55.450Z,97634.66
2022-10-04T12:00:32.093Z,97634.34
2022-10-04T12:03:20.986Z,97643.47
2022-10-04T12:05:52.008Z,97640.38
2022-10-04T12:08:47.357Z,97641.91
2022-10-04T12:11:50.152Z,97643.22
2022-10-04T12:14:48.572Z,97639.16
2022-10-04T12:17:37.577Z,97635.84
2022-10-04T12:20:23.370Z,97644.00
2022-10-04T12:23:10.281Z,97647.72
2022-10-04T12:25:56.064Z,97656.78
2022-10-04T12:28:54.125Z,97651.38
2022-10-04T12:31:38.018Z,97646.13
2022-10-04T12:34:13.244Z,97647.56
2022-10-04T12:36:56.084Z,97652.03
2022-10-04T12:39:36.061Z,97649.41
2022-10-04T12:42:24.045Z,97648.53
2022-10-04T12:45:28.782Z,97639.88
2022-10-04T12:48:24.180Z,97635.28
2022-10-04T12:51:01.694Z,97636.75
2022-10-04T12:54:13.268Z,97637.59
2022-10-04T12:57:09.113Z,97639.56
2022-10-04T12:59:40.042Z,97636.03
2022-10-04T13:02:29.786Z,97639.72
2022-10-04T13:05:30.646Z,97636.69
2022-10-04T13:08:13.188Z,97639.97
2022-10-04T13:10:58.872Z,97642.91
2022-10-04T13:13:56.829Z,97642.28
2022-10-04T13:17:34.030Z,97648.22
2022-10-04T13:20:24.855Z,97646.53
2022-10-04T13:23:03.045Z,97660.38
2022-10-04T13:26:02.794Z,97659.16
2022-10-04T13:28:50.352Z,97656.84
2022-10-04T13:31:21.817Z,97660.38
2022-10-04T13:33:52.406Z,97662.50
2022-10-04T13:36:29.412Z,97660.38
2022-10-04T13:39:17.138Z,97665.28
2022-10-04T13:41:54.737Z,97655.56
2022-10-04T13:44:25.660Z,97659.41
2022-10-04T13:46:59.616Z,97659.84
2022-10-04T13:49:45.517Z,97657.09
2022-10-04T13:52:22.615Z,97655.41
2022-10-04T13:54:56.855Z,97662.13
2022-10-04T13:57:37.934Z,97654.66
2022-10-04T14:00:14.428Z,97653.91
2022-10-04T14:02:45.216Z,97659.34
2022-10-04T14:05:34.129Z,97658.31
2022-10-04T14:08:21.612Z,97670.63
2022-10-04T14:11:11.807Z,97669.53
2022-10-04T14:14:01.085Z,97667.22
2022-10-04T14:16:47.073Z,97657.19
2022-10-04T14:19:42.870Z,97672.34
2022-10-04T14:22:25.649Z,97679.06
2022-10-04T14:24:56.662Z,97682.22
2022-10-04T14:27:43.707Z,97679.91
2022-10-04T14:30:26.149Z,97676.25
2022-10-04T14:33:14.982Z,97682.47
2022-10-04T14:35:57.749Z,97683.91
2022-10-04T14:38:47.202Z,97683.94
2022-10-04T14:41:39.385Z,97691.72
2022-10-04T14:44:16.117Z,97688.50
2022-10-04T14:47:08.801Z,97684.22
2022-10-04T14:50:13.559Z,97693.56
2022-10-04T14:53:21.768Z,97691.72
2022-10-04T14:56:17.763Z,97684.44
2022-10-04T14:59:04.045Z,97691.41
2022-10-04T15:01:32.397Z,97686.59
2022-10-04T15:04:13.418Z,97690.03
2022-10-04T15:06:55.208Z,97686.78
2022-10-04T15:10:04.208Z,97690.72
2022-10-04T15:12:52.013Z,97696.16
2022-10-04T15:15:20.081Z,97697.53
2022-10-04T15:17:51.226Z,97701.88
2022-10-04T15:20:24.058Z,97704.34
2022-10-04T15:23:16.016Z,97702.72
2022-10-04T15:25:48.004Z,97707.50
2022-10-04T15:28:36.683Z,97693.09
2022-10-04T15:31:55.032Z,97698.59
2022-10-04T15:34:34.591Z,97695.59
2022-10-04T15:37:34.833Z,97697.16
2022-10-04T15:40:16.291Z,97694.94
2022-10-04T15:43:19.680Z,97686.56
2022-10-04T15:46:05.384Z,97696.88
2022-10-04T15:48:59.600Z,97693.56
2022-10-04T15:51:54.679Z,97698.88
2022-10-04T15:54:59.725Z,97699.63
2022-10-04T15:57:37.011Z,97707.72
2022-10-04T16:00:12.959Z,97700.50
2022-10-04T16:02:49.831Z,97691.69
2022-10-04T16:05:59.000Z,97706.97
2022-10-04T16:08:44.657Z,97698.53
2022-10-04T16:11:12.678Z,97710.75
2022-10-04T16:13:52.728Z,97706.84
2022-10-04T16:16:42.930Z,97696.34
2022-10-04T16:19:40.160Z,97693.53
2022-10-04T16:22:20.978Z,97691.81
2022-10-04T16:25:27.340Z,97683.94
2022-10-04T16:27:58.190Z,97690.28
2022-10-04T16:30:35.189Z,97686.88
2022-10-04T16:33:05.996Z,97685.41
2022-10-04T16:35:44.444Z,97682.06
2022-10-04T16:38:15.160Z,97672.91
2022-10-04T16:40:52.058Z,97677.66
2022-10-04T16:43:20.028Z,97681.63
2022-10-04T16:45:59.945Z,97681.81
2022-10-04T16:48:49.052Z,97679.69
2022-10-04T16:51:20.223Z,97689.84
2022-10-04T16:53:56.298Z,97691.84
2022-10-04T16:56:26.940Z,97686.53
2022-10-04T16:59:11.600Z,97687.03
2022-10-04T17:01:52.915Z,97683.59
2022-10-04T17:04:31.765Z,97691.25
2022-10-04T17:07:01.066Z,97672.47
2022-10-04T17:09:47.291Z,97685.81
2022-10-04T17:12:38.008Z,97678.00
2022-10-04T17:15:26.876Z,97680.50
2022-10-04T17:18:07.047Z,97672.34
2022-10-04T17:20:44.006Z,97673.72
2022-10-04T17:23:48.943Z,97664.69
2022-10-04T17:26:36.876Z,97663.25
2022-10-04T17:29:16.740Z,97668.66
2022-10-04T17:31:52.450Z,97659.75
2022-10-04T17:34:43.078Z,97660.13
2022-10-04T17:37:35.694Z,97654.41
2022-10-04T17:40:25.095Z,97651.94
2022-10-04T17:43:17.187Z,97649.63
2022-10-04T17:46:24.454Z,97642.09
2022-10-04T17:49:26.993Z,97642.56
2022-10-04T17:52:04.392Z,97641.06
2022-10-04T17:54:52.756Z,97632.41
2022-10-04T17:57:28.897Z,97630.22
2022-10-04T18:00:09.645Z,97623.53
2022-10-04T18:03:09.779Z,97618.75
2022-10-04T18:05:43.604Z,97621.44
2022-10-04T18:08:11.615Z,97616.41
2022-10-04T18:10:47.257Z,97611.44
2022-10-04T18:13:48.498Z,97611.13
2022-10-04T18:16:32.536Z,97610.34
2022-10-04T18:19:49.361Z,97602.03
2022-10-04T18:22:18.742Z,97602.75
2022-10-04T18:25:09.137Z,97595.63
2022-10-04T18:27:53.092Z,97593.56
2022-10-04T18:30:22.309Z,97586.66
2022-10-04T18:32:58.777Z,97586.31
2022-10-04T18:35:30.352Z,97580.78
2022-10-04T18:38:19.682Z,97582.81
2022-10-04T18:41:01.861Z,97572.00
2022-10-04T18:43:42.384Z,97571.50
2022-10-04T18:46:21.864Z,97569.63
2022-10-04T18:48:54.036Z,97561.22
2022-10-04T18:51:27.856Z,97559.06
2022-10-04T18:54:37.266Z,97566.38
2022-10-04T18:57:19.906Z,97560.47
2022-10-04T19:00:08.135Z,97555.06
2022-10-04T19:02:46.600Z,97556.41
2022-10-04T19:05:46.956Z,97552.88
2022-10-04T19:08:32.535Z,97538.00
2022-10-04T19:11:16.964Z,97538.34
2022-10-04T19:14:15.150Z,97533.84
2022-10-04T19:17:07.908Z,97532.09
2022-10-04T19:19:42.827Z,97526.38
2022-10-04T19:22:25.725Z,97525.41
2022-10-04T19:25:18.173Z,97525.84
2022-10-04T19:28:29.611Z,97519.53
2022-10-04T19:31:32.962Z,97513.63
2022-10-04T19:34:21.066Z,97509.41
2022-10-04T19:37:07.869Z,97508.56
2022-10-04T19:39:53.949Z,97502.63
2022-10-04T19:42:41.990Z,97503.47
2022-10-04T19:45:19.725Z,97494.41
2022-10-04T19:47:56.325Z,97492.13
2022-10-04T19:50:38.089Z,97487.38
2022-10-04T19:53:27.554Z,97491.25
2022-10-04T19:55:56.996Z,97490.81
2022-10-04T19:58:27.956Z,97486.19
2022-10-04T20:03:23.823Z,97479.22
2022-10-04T20:05:54.563Z,97483.56
2022-10-04T20:08:50.415Z,97484.97
2022-10-04T20:11:28.165Z,97477.41
2022-10-04T20:14:19.404Z,97472.56
2022-10-04T20:16:50.785Z,97469.22
2022-10-04T20:19:29.324Z,97471.69
2022-10-04T20:22:18.300Z,97463.72
2022-10-04T20:24:46.319Z,97463.38
2022-10-04T20:27:23.021Z,97459.50
2022-10-04T20:29:50.998Z,97452.28
2022-10-04T20:32:39.117Z,97454.28
2022-10-04T20:35:49.832Z,97444.16
2022-10-04T20:38:32.323Z,97454.97
2022-10-04T20:41:01.340Z,97441.28
2022-10-04T20:43:29.923Z,97439.06
2022-10-04T20:45:59.153Z,97437.34
2022-10-04T20:48:30.019Z,97438.75
2022-10-04T20:51:08.097Z,97434.03
2022-10-04T20:53:36.821Z,97422.22
2022-10-04T20:56:34.067Z,97422.78
2022-10-04T20:59:04.450Z,97414.75
2022-10-04T21:01:37.523Z,97413.75
2022-10-04T21:04:44.533Z,97408.81
2022-10-04T21:07:18.185Z,97401.28
2022-10-04T21:09:46.485Z,97399.00
2022-10-04T21:12:32.827Z,97401.16
2022-10-04T21:15:17.741Z,97392.78
2022-10-04T21:18:05.986Z,97391.22
2022-10-04T21:20:51.189Z,97390.16
2022-10-04T21:23:30.473Z,97381.22
2022-10-04T21:26:25.998Z,97370.78
2022-10-04T21:28:55.458Z,97365.16
2022-10-04T21:31:23.572Z,97363.78
2022-10-04T21:33:54.789Z,97365.94
2022-10-04T21:36:25.787Z,97364.91
2022-10-04T21:38:53.811Z,97362.53
2022-10-04T21:41:21.929Z,97364.16
2022-10-04T21:43:50.018Z,97361.31
2022-10-04T21:46:20.402Z,97350.28
2022-10-04T21:48:48.992Z,97348.59
2022-10-04T21:51:17.085Z,97346.28
2022-10-04T21:53:45.100Z,97343.63
2022-10-04T21:56:15.593Z,97341.03
2022-10-04T21:58:43.616Z,97342.66
2022-10-04T22:01:14.718Z,97344.41
2022-10-04T22:03:42.993Z,97340.31
2022-10-04T22:06:13.656Z,97342.97
2022-10-04T22:08:41.892Z,97343.38
2022-10-04T22:11:10.739Z,97337.69
2022-10-04T22:13:41.158Z,97341.13
2022-10-04T22:16:09.543Z,97340.41
2022-10-04T22:18:37.669Z,97329.84
2022-10-04T22:21:06.338Z,97337.69
2022-10-04T22:23:39.708Z,97338.63
2022-10-04T22:26:19.079Z,97330.94
2022-10-04T22:28:52.844Z,97374.16
2022-10-04T22:31:22.342Z,97421.53
2022-10-04T22:33:54.519Z,97515.88
2022-10-04T22:36:36.837Z,97463.50
2022-10-04T22:39:10.863Z,97308.13
2022-10-04T22:41:49.379Z,97306.56
2022-10-04T22:44:26.006Z,97298.69
2022-10-04T22:47:01.933Z,97295.38
2022-10-04T22:49:35.732Z,97281.97
2022-10-04T22:52:11.920Z,97343.34
2022-10-04T22:54:44.708Z,97335.78
2022-10-04T22:57:15.138Z,97337.16
2022-10-04T22:59:52.388Z,97288.81
2022-10-04T23:02:26.095Z,97278.66
2022-10-04T23:04:57.387Z,97278.72
2022-10-04T23:07:28.386Z,97269.75
2022-10-04T23:09:56.420Z,97262.28
2022-10-04T23:12:26.994Z,97265.50
2022-10-04T23:14:55.830Z,97266.88
2022-10-04T23:17:34.942Z,97263.34
2022-10-04T23:20:12.577Z,97256.34
2022-10-04T23:22:47.767Z,97254.53
2022-10-04T23:25:25.810Z,97246.91
2022-10-04T23:27:55.667Z,97242.56
2022-10-04T23:30:26.522Z,97233.59
2022-10-04T23:32:58.389Z,97232.31
2022-10-04T23:35:31.180Z,97233.00
2022-10-04T23:37:59.270Z,97234.41
2022-10-04T23:40:27.365Z,97234.31
2022-10-04T23:43:05.764Z,97225.19
2022-10-04T23:45:36.746Z,97226.16
2022-10-04T23:48:10.204Z,97227.41
2022-10-04T23:50:40.670Z,97229.09
2022-10-04T23:53:20.253Z,97226.34
2022-10-04T23:55:48.374Z,97223.25
2022-10-04T23:58:21.196Z,97223.91
